sensor_id;sensor_type;location;lat;lon;timestamp;pressure;altitude;pressure_sealevel;temperature;humidity
740;BME280;354;42.694;23.336;2022-08-19T00:01:15;95018.34;;;20.88;100.00
740;BME280;354;42.694;23.336;2022-08-19T00:03:41;95036.41;;;21.01;100.00
740;BME280;354;42.694;23.336;2022-08-19T00:06:06;95039.31;;;21.05;100.00
740;BME280;354;42.694;23.336;2022-08-19T00:08:31;95037.66;;;21.09;100.00
740;BME280;354;42.694;23.336;2022-08-19T00:10:57;95042.41;;;21.17;100.00
740;BME280;354;42.694;23.336;2022-08-19T00:13:23;95032.22;;;20.90;100.00
740;BME280;354;42.694;23.336;2022-08-19T00:15:48;95035.13;;;20.94;100.00
740;BME280;354;42.694;23.336;2022-08-19T00:18:13;95039.69;;;20.93;100.00
740;BME280;354;42.694;23.336;2022-08-19T00:20:39;95048.00;;;20.87;100.00
740;BME280;354;42.694;23.336;2022-08-19T00:23:06;95052.09;;;20.79;100.00
740;BME280;354;42.694;23.336;2022-08-19T00:25:31;95055.00;;;20.83;100.00
740;BME280;354;42.694;23.336;2022-08-19T00:27:57;95047.88;;;20.73;100.00
740;BME280;354;42.694;23.336;2022-08-19T00:30:25;95047.78;;;20.83;100.00
740;BME280;354;42.694;23.336;2022-08-19T00:32:50;95046.47;;;20.81;100.00
740;BME280;354;42.694;23.336;2022-08-19T00:35:16;95052.31;;;20.88;100.00
740;BME280;354;42.694;23.336;2022-08-19T00:37:42;95054.72;;;20.84;100.00
740;BME280;354;42.694;23.336;2022-08-19T00:40:09;95048.28;;;20.85;100.00
740;BME280;354;42.694;23.336;2022-08-19T00:42:35;95048.38;;;20.75;100.00
740;BME280;354;42.694;23.336;2022-08-19T00:45:02;95031.28;;;20.71;100.00
740;BME280;354;42.694;23.336;2022-08-19T00:47:27;95046.78;;;20.74;100.00
740;BME280;354;42.694;23.336;2022-08-19T00:49:56;95019.66;;;20.57;100.00
740;BME280;354;42.694;23.336;2022-08-19T00:52:32;95015.41;;;20.56;100.00
740;BME280;354;42.694;23.336;2022-08-19T00:54:59;95038.25;;;20.72;100.00
740;BME280;354;42.694;23.336;2022-08-19T00:57:38;95044.63;;;20.76;100.00
740;BME280;354;42.694;23.336;2022-08-19T01:00:12;95040.44;;;20.65;100.00
740;BME280;354;42.694;23.336;2022-08-19T01:02:39;95042.53;;;20.73;100.00
740;BME280;354;42.694;23.336;2022-08-19T01:05:17;95041.97;;;20.71;100.00
740;BME280;354;42.694;23.336;2022-08-19T01:07:44;95047.91;;;20.68;100.00
740;BME280;354;42.694;23.336;2022-08-19T01:10:13;95037.78;;;20.60;100.00
740;BME280;354;42.694;23.336;2022-08-19T01:12:39;95040.78;;;20.53;100.00
740;BME280;354;42.694;23.336;2022-08-19T01:15:08;95044.06;;;20.40;100.00
740;BME280;354;42.694;23.336;2022-08-19T01:17:36;95038.47;;;20.36;100.00
740;BME280;354;42.694;23.336;2022-08-19T01:20:04;95031.03;;;20.28;100.00
740;BME280;354;42.694;23.336;2022-08-19T01:22:39;95015.09;;;20.13;100.00
740;BME280;354;42.694;23.336;2022-08-19T01:25:07;95039.84;;;20.29;100.00
740;BME280;354;42.694;23.336;2022-08-19T01:27:41;95037.53;;;20.12;100.00
740;BME280;354;42.694;23.336;2022-08-19T01:30:10;95042.09;;;20.11;100.00
740;BME280;354;42.694;23.336;2022-08-19T01:32:36;95041.53;;;20.09;100.00
740;BME280;354;42.694;23.336;2022-08-19T01:35:03;95037.81;;;20.10;100.00
740;BME280;354;42.694;23.336;2022-08-19T01:37:40;95030.34;;;20.12;100.00
740;BME280;354;42.694;23.336;2022-08-19T01:40:06;95031.19;;;19.97;100.00
740;BME280;354;42.694;23.336;2022-08-19T01:42:32;95037.63;;;19.96;100.00
740;BME280;354;42.694;23.336;2022-08-19T01:44:57;95011.47;;;19.88;100.00
740;BME280;354;42.694;23.336;2022-08-19T01:47:23;95039.69;;;20.10;100.00
740;BME280;354;42.694;23.336;2022-08-19T01:49:48;95041.31;;;20.06;100.00
740;BME280;354;42.694;23.336;2022-08-19T01:52:13;95039.41;;;20.11;100.00
740;BME280;354;42.694;23.336;2022-08-19T01:54:39;95049.88;;;20.03;100.00
740;BME280;354;42.694;23.336;2022-08-19T01:57:07;95042.97;;;19.91;100.00
740;BME280;354;42.694;23.336;2022-08-19T01:59:33;95042.19;;;19.86;100.00
740;BME280;354;42.694;23.336;2022-08-19T02:02:01;95041.41;;;19.80;100.00
740;BME280;354;42.694;23.336;2022-08-19T02:04:26;95042.53;;;19.74;100.00
740;BME280;354;42.694;23.336;2022-08-19T02:06:52;95048.16;;;19.67;100.00
740;BME280;354;42.694;23.336;2022-08-19T02:09:17;95045.69;;;19.81;100.00
740;BME280;354;42.694;23.336;2022-08-19T02:11:43;95039.31;;;19.72;100.00
740;BME280;354;42.694;23.336;2022-08-19T02:14:08;95045.72;;;19.76;100.00
740;BME280;354;42.694;23.336;2022-08-19T02:16:35;95045.72;;;19.76;100.00
740;BME280;354;42.694;23.336;2022-08-19T02:19:01;95044.66;;;19.72;100.00
740;BME280;354;42.694;23.336;2022-08-19T02:21:27;95045.97;;;19.80;100.00
740;BME280;354;42.694;23.336;2022-08-19T02:23:54;95041.16;;;19.77;100.00
740;BME280;354;42.694;23.336;2022-08-19T02:26:21;95045.16;;;19.84;100.00
740;BME280;354;42.694;23.336;2022-08-19T02:28:46;95041.91;;;19.87;100.00
740;BME280;354;42.694;23.336;2022-08-19T02:31:16;95047.25;;;19.92;100.00
740;BME280;354;42.694;23.336;2022-08-19T02:33:42;95042.44;;;19.94;100.00
740;BME280;354;42.694;23.336;2022-08-19T02:36:10;95049.91;;;19.92;100.00
740;BME280;354;42.694;23.336;2022-08-19T02:38:36;95044.06;;;19.90;100.00
740;BME280;354;42.694;23.336;2022-08-19T02:41:08;95045.66;;;19.86;100.00
740;BME280;354;42.694;23.336;2022-08-19T02:43:36;95047.28;;;19.82;100.00
740;BME280;354;42.694;23.336;2022-08-19T02:46:11;95049.44;;;19.80;100.00
740;BME280;354;42.694;23.336;2022-08-19T02:48:37;95059.03;;;19.76;100.00
740;BME280;354;42.694;23.336;2022-08-19T02:51:02;95057.19;;;19.71;100.00
740;BME280;354;42.694;23.336;2022-08-19T02:53:28;95051.88;;;19.61;100.00
740;BME280;354;42.694;23.336;2022-08-19T02:55:54;95048.69;;;19.54;100.00
740;BME280;354;42.694;23.336;2022-08-19T02:58:21;95053.25;;;19.59;100.00
740;BME280;354;42.694;23.336;2022-08-19T03:00:50;95063.66;;;19.45;100.00
740;BME280;354;42.694;23.336;2022-08-19T03:03:16;95062.03;;;19.44;100.00
740;BME280;354;42.694;23.336;2022-08-19T03:05:43;95059.38;;;19.39;100.00
740;BME280;354;42.694;23.336;2022-08-19T03:08:12;95054.34;;;19.17;100.00
740;BME280;354;42.694;23.336;2022-08-19T03:10:42;95060.25;;;19.14;100.00
740;BME280;354;42.694;23.336;2022-08-19T03:13:18;95058.09;;;19.11;100.00
740;BME280;354;42.694;23.336;2022-08-19T03:15:45;95051.97;;;19.10;100.00
740;BME280;354;42.694;23.336;2022-08-19T03:18:13;95050.66;;;19.03;100.00
740;BME280;354;42.694;23.336;2022-08-19T03:20:48;95046.13;;;18.93;100.00
740;BME280;354;42.694;23.336;2022-08-19T03:23:15;95046.41;;;18.91;100.00
740;BME280;354;42.694;23.336;2022-08-19T03:25:43;95026.16;;;18.80;100.00
740;BME280;354;42.694;23.336;2022-08-19T03:28:12;95055.72;;;18.79;100.00
740;BME280;354;42.694;23.336;2022-08-19T03:30:39;95056.78;;;18.78;100.00
740;BME280;354;42.694;23.336;2022-08-19T03:33:10;95053.59;;;18.81;100.00
740;BME280;354;42.694;23.336;2022-08-19T03:35:37;95050.38;;;18.84;100.00
740;BME280;354;42.694;23.336;2022-08-19T03:38:04;95061.84;;;18.94;100.00
740;BME280;354;42.694;23.336;2022-08-19T03:40:32;95061.84;;;18.89;100.00
740;BME280;354;42.694;23.336;2022-08-19T03:42:59;95069.03;;;18.94;100.00
740;BME280;354;42.694;23.336;2022-08-19T03:45:25;95054.91;;;18.78;100.00
740;BME280;354;42.694;23.336;2022-08-19T03:47:51;95075.44;;;18.83;100.00
740;BME280;354;42.694;23.336;2022-08-19T03:50:16;95075.16;;;18.84;100.00
740;BME280;354;42.694;23.336;2022-08-19T03:52:48;95077.84;;;18.94;100.00
740;BME280;354;42.694;23.336;2022-08-19T03:55:13;95086.09;;;19.18;100.00
740;BME280;354;42.694;23.336;2022-08-19T03:57:39;95084.75;;;19.16;100.00
740;BME280;354;42.694;23.336;2022-08-19T04:00:04;95080.22;;;19.21;100.00
740;BME280;354;42.694;23.336;2022-08-19T04:02:32;95080.50;;;19.25;100.00
740;BME280;354;42.694;23.336;2022-08-19T04:04:57;95087.94;;;19.38;100.00
740;BME280;354;42.694;23.336;2022-08-19T04:07:22;95096.47;;;19.45;100.00
740;BME280;354;42.694;23.336;2022-08-19T04:09:48;95090.59;;;19.64;100.00
740;BME280;354;42.694;23.336;2022-08-19T04:12:14;95093.25;;;19.64;100.00
740;BME280;354;42.694;23.336;2022-08-19T04:14:40;95095.09;;;19.79;100.00
740;BME280;354;42.694;23.336;2022-08-19T04:17:06;95088.63;;;19.90;100.00
740;BME280;354;42.694;23.336;2022-08-19T04:19:34;95097.44;;;19.95;100.00
740;BME280;354;42.694;23.336;2022-08-19T04:22:00;95090.19;;;20.06;100.00
740;BME280;354;42.694;23.336;2022-08-19T04:24:25;95090.97;;;20.07;100.00
740;BME280;354;42.694;23.336;2022-08-19T04:26:51;95097.06;;;20.17;100.00
740;BME280;354;42.694;23.336;2022-08-19T04:29:22;95103.16;;;20.28;100.00
740;BME280;354;42.694;23.336;2022-08-19T04:31:50;95103.13;;;20.38;100.00
740;BME280;354;42.694;23.336;2022-08-19T04:34:18;95102.78;;;20.55;100.00
740;BME280;354;42.694;23.336;2022-08-19T04:36:47;95098.47;;;20.59;100.00
740;BME280;354;42.694;23.336;2022-08-19T04:39:17;95109.56;;;20.76;100.00
740;BME280;354;42.694;23.336;2022-08-19T04:41:43;95087.56;;;20.90;100.00
740;BME280;354;42.694;23.336;2022-08-19T04:44:27;95102.56;;;21.20;100.00
740;BME280;354;42.694;23.336;2022-08-19T04:46:56;95092.84;;;21.34;100.00
740;BME280;354;42.694;23.336;2022-08-19T04:49:22;95097.81;;;21.46;100.00
740;BME280;354;42.694;23.336;2022-08-19T04:51:47;95098.84;;;21.74;100.00
740;BME280;354;42.694;23.336;2022-08-19T04:54:15;95106.16;;;21.92;100.00
740;BME280;354;42.694;23.336;2022-08-19T04:56:41;95107.66;;;22.03;100.00
740;BME280;354;42.694;23.336;2022-08-19T04:59:07;95108.72;;;22.26;100.00
740;BME280;354;42.694;23.336;2022-08-19T05:01:34;95107.69;;;22.65;100.00
740;BME280;354;42.694;23.336;2022-08-19T05:04:03;95112.50;;;23.20;100.00
740;BME280;354;42.694;23.336;2022-08-19T05:06:30;95112.63;;;23.28;100.00
740;BME280;354;42.694;23.336;2022-08-19T05:08:59;95112.84;;;23.32;100.00
740;BME280;354;42.694;23.336;2022-08-19T05:11:27;95113.00;;;23.22;100.00
740;BME280;354;42.694;23.336;2022-08-19T05:13:54;95113.22;;;23.25;100.00
740;BME280;354;42.694;23.336;2022-08-19T05:16:21;95106.06;;;23.21;100.00
740;BME280;354;42.694;23.336;2022-08-19T05:18:47;95111.97;;;23.04;100.00
740;BME280;354;42.694;23.336;2022-08-19T05:21:33;95107.47;;;22.99;100.00
740;BME280;354;42.694;23.336;2022-08-19T05:24:19;95109.78;;;22.87;100.00
740;BME280;354;42.694;23.336;2022-08-19T05:26:47;95109.13;;;22.95;100.00
740;BME280;354;42.694;23.336;2022-08-19T05:29:14;95110.81;;;23.24;100.00
740;BME280;354;42.694;23.336;2022-08-19T05:31:40;95114.44;;;23.33;100.00
740;BME280;354;42.694;23.336;2022-08-19T05:34:06;95120.03;;;23.36;100.00
740;BME280;354;42.694;23.336;2022-08-19T05:36:42;95110.72;;;23.29;100.00
740;BME280;354;42.694;23.336;2022-08-19T05:39:11;95106.75;;;23.26;100.00
740;BME280;354;42.694;23.336;2022-08-19T05:41:48;95118.44;;;23.49;100.00
740;BME280;354;42.694;23.336;2022-08-19T05:44:15;95117.53;;;23.40;100.00
740;BME280;354;42.694;23.336;2022-08-19T05:46:43;95120.56;;;23.52;100.00
740;BME280;354;42.694;23.336;2022-08-19T05:49:12;95123.66;;;23.59;100.00
740;BME280;354;42.694;23.336;2022-08-19T05:51:38;95106.59;;;23.83;100.00
740;BME280;354;42.694;23.336;2022-08-19T05:54:05;95107.09;;;24.90;100.00
740;BME280;354;42.694;23.336;2022-08-19T05:56:32;95110.00;;;25.69;100.00
740;BME280;354;42.694;23.336;2022-08-19T05:59:00;95123.50;;;26.09;97.08
740;BME280;354;42.694;23.336;2022-08-19T06:01:26;95123.56;;;27.01;89.78
740;BME280;354;42.694;23.336;2022-08-19T06:03:52;95112.41;;;28.10;80.30
740;BME280;354;42.694;23.336;2022-08-19T06:06:18;95121.69;;;29.10;74.94
740;BME280;354;42.694;23.336;2022-08-19T06:08:44;95121.28;;;29.74;67.79
740;BME280;354;42.694;23.336;2022-08-19T06:11:33;95125.75;;;30.77;62.28
740;BME280;354;42.694;23.336;2022-08-19T06:14:02;95135.00;;;31.40;61.10
740;BME280;354;42.694;23.336;2022-08-19T06:16:28;95130.97;;;31.34;60.12
740;BME280;354;42.694;23.336;2022-08-19T06:18:59;95139.28;;;32.29;53.08
740;BME280;354;42.694;23.336;2022-08-19T06:21:27;95133.28;;;32.71;51.42
740;BME280;354;42.694;23.336;2022-08-19T06:23:54;95127.28;;;32.81;50.73
740;BME280;354;42.694;23.336;2022-08-19T06:26:21;95134.75;;;32.84;49.85
740;BME280;354;42.694;23.336;2022-08-19T06:28:47;95118.16;;;32.89;50.38
740;BME280;354;42.694;23.336;2022-08-19T06:31:18;95112.50;;;33.17;49.28
740;BME280;354;42.694;23.336;2022-08-19T06:33:45;95125.84;;;33.03;48.52
740;BME280;354;42.694;23.336;2022-08-19T06:36:22;95133.09;;;33.15;49.45
740;BME280;354;42.694;23.336;2022-08-19T06:38:59;95133.06;;;32.95;48.15
740;BME280;354;42.694;23.336;2022-08-19T06:41:26;95115.22;;;32.31;49.17
740;BME280;354;42.694;23.336;2022-08-19T06:43:52;95133.63;;;31.46;52.51
740;BME280;354;42.694;23.336;2022-08-19T06:46:18;95130.66;;;30.47;56.06
740;BME280;354;42.694;23.336;2022-08-19T06:48:45;95127.88;;;29.85;57.21
740;BME280;354;42.694;23.336;2022-08-19T06:51:14;95119.91;;;28.93;61.80
740;BME280;354;42.694;23.336;2022-08-19T06:53:41;95105.78;;;28.28;62.93
740;BME280;354;42.694;23.336;2022-08-19T06:56:15;95126.72;;;28.10;67.49
740;BME280;354;42.694;23.336;2022-08-19T06:58:42;95118.59;;;28.49;64.70
740;BME280;354;42.694;23.336;2022-08-19T07:01:08;95126.78;;;30.11;60.42
740;BME280;354;42.694;23.336;2022-08-19T07:03:35;95129.44;;;31.93;53.37
740;BME280;354;42.694;23.336;2022-08-19T07:06:06;95131.91;;;32.96;50.04
740;BME280;354;42.694;23.336;2022-08-19T07:08:33;95139.22;;;33.89;47.10
740;BME280;354;42.694;23.336;2022-08-19T07:10:59;95144.06;;;33.76;46.70
740;BME280;354;42.694;23.336;2022-08-19T07:13:25;95134.47;;;31.35;52.10
740;BME280;354;42.694;23.336;2022-08-19T07:15:51;95132.72;;;29.92;58.10
740;BME280;354;42.694;23.336;2022-08-19T07:18:18;95122.41;;;28.77;61.32
740;BME280;354;42.694;23.336;2022-08-19T07:20:45;95128.34;;;28.03;66.61
740;BME280;354;42.694;23.336;2022-08-19T07:23:11;95128.63;;;27.46;73.89
740;BME280;354;42.694;23.336;2022-08-19T07:25:37;95129.59;;;27.24;73.70
740;BME280;354;42.694;23.336;2022-08-19T07:28:03;95131.19;;;27.34;73.46
740;BME280;354;42.694;23.336;2022-08-19T07:30:29;95132.31;;;27.24;72.31
740;BME280;354;42.694;23.336;2022-08-19T07:32:55;95126.59;;;27.17;73.41
740;BME280;354;42.694;23.336;2022-08-19T07:35:21;95130.72;;;27.31;76.89
740;BME280;354;42.694;23.336;2022-08-19T07:37:47;95121.84;;;27.31;73.06
740;BME280;354;42.694;23.336;2022-08-19T07:40:13;95119.09;;;27.40;74.87
740;BME280;354;42.694;23.336;2022-08-19T07:42:39;95115.44;;;27.44;73.00
740;BME280;354;42.694;23.336;2022-08-19T07:45:05;95121.47;;;27.58;72.13
740;BME280;354;42.694;23.336;2022-08-19T07:47:31;95121.31;;;27.64;70.34
740;BME280;354;42.694;23.336;2022-08-19T07:49:57;95124.44;;;27.74;70.30
740;BME280;354;42.694;23.336;2022-08-19T07:52:22;95123.00;;;27.68;71.25
740;BME280;354;42.694;23.336;2022-08-19T07:54:48;95125.06;;;27.80;70.62
740;BME280;354;42.694;23.336;2022-08-19T07:57:14;95127.13;;;27.92;68.60
740;BME280;354;42.694;23.336;2022-08-19T07:59:40;95117.72;;;27.98;66.63
740;BME280;354;42.694;23.336;2022-08-19T08:02:06;95121.09;;;27.86;67.98
740;BME280;354;42.694;23.336;2022-08-19T08:04:31;95105.94;;;28.02;66.98
740;BME280;354;42.694;23.336;2022-08-19T08:07:16;95117.63;;;28.15;65.54
740;BME280;354;42.694;23.336;2022-08-19T08:10:00;95113.97;;;28.20;66.50
740;BME280;354;42.694;23.336;2022-08-19T08:12:30;95119.94;;;28.34;65.29
740;BME280;354;42.694;23.336;2022-08-19T08:14:59;95110.69;;;28.44;65.01
740;BME280;354;42.694;23.336;2022-08-19T08:17:28;95118.16;;;28.68;65.15
740;BME280;354;42.694;23.336;2022-08-19T08:19:55;95115.41;;;28.76;63.69
740;BME280;354;42.694;23.336;2022-08-19T08:22:22;95106.75;;;28.83;62.23
740;BME280;354;42.694;23.336;2022-08-19T08:25:12;95100.75;;;28.77;61.91
740;BME280;354;42.694;23.336;2022-08-19T08:27:40;95107.19;;;28.94;61.44
740;BME280;354;42.694;23.336;2022-08-19T08:30:10;95099.66;;;28.99;59.72
740;BME280;354;42.694;23.336;2022-08-19T08:32:38;95099.38;;;29.13;59.52
740;BME280;354;42.694;23.336;2022-08-19T08:35:09;95079.75;;;29.16;61.26
740;BME280;354;42.694;23.336;2022-08-19T08:37:35;95091.25;;;29.46;61.26
740;BME280;354;42.694;23.336;2022-08-19T08:40:49;95094.03;;;29.58;59.81
740;BME280;354;42.694;23.336;2022-08-19T08:46:13;95086.75;;;29.96;60.64
740;BME280;354;42.694;23.336;2022-08-19T08:49:06;95086.09;;;30.11;58.07
740;BME280;354;42.694;23.336;2022-08-19T08:51:41;95087.69;;;30.24;59.78
740;BME280;354;42.694;23.336;2022-08-19T08:54:10;95082.28;;;30.12;55.83
740;BME280;354;42.694;23.336;2022-08-19T08:56:41;95075.00;;;30.04;52.34
740;BME280;354;42.694;23.336;2022-08-19T08:59:19;95091.97;;;30.01;50.35
740;BME280;354;42.694;23.336;2022-08-19T09:01:45;95081.31;;;30.08;52.01
740;BME280;354;42.694;23.336;2022-08-19T09:04:12;95073.41;;;30.27;52.61
740;BME280;354;42.694;23.336;2022-08-19T09:06:52;95076.59;;;30.41;53.46
740;BME280;354;42.694;23.336;2022-08-19T09:09:37;95065.72;;;30.54;52.55
740;BME280;354;42.694;23.336;2022-08-19T09:15:03;95071.50;;;30.52;48.31
740;BME280;354;42.694;23.336;2022-08-19T09:17:30;95066.63;;;30.58;49.99
740;BME280;354;42.694;23.336;2022-08-19T09:20:03;95055.16;;;30.64;48.76
740;BME280;354;42.694;23.336;2022-08-19T09:22:32;95065.25;;;30.64;46.41
740;BME280;354;42.694;23.336;2022-08-19T09:24:58;95063.41;;;30.80;46.27
740;BME280;354;42.694;23.336;2022-08-19T09:27:24;95065.66;;;30.90;45.63
740;BME280;354;42.694;23.336;2022-08-19T09:29:51;95058.59;;;31.02;46.28
740;BME280;354;42.694;23.336;2022-08-19T09:32:17;95056.72;;;31.18;47.22
740;BME280;354;42.694;23.336;2022-08-19T09:34:43;95063.00;;;31.34;46.34
740;BME280;354;42.694;23.336;2022-08-19T09:37:09;95050.56;;;31.33;44.57
740;BME280;354;42.694;23.336;2022-08-19T09:39:35;95045.38;;;31.28;44.46
740;BME280;354;42.694;23.336;2022-08-19T09:42:00;95048.03;;;31.40;44.66
740;BME280;354;42.694;23.336;2022-08-19T09:44:26;95051.78;;;31.36;42.92
740;BME280;354;42.694;23.336;2022-08-19T09:46:51;95037.34;;;31.47;44.67
740;BME280;354;42.694;23.336;2022-08-19T09:49:18;95046.13;;;31.57;42.57
740;BME280;354;42.694;23.336;2022-08-19T09:51:43;95044.09;;;31.69;42.95
740;BME280;354;42.694;23.336;2022-08-19T09:54:09;95030.31;;;31.46;40.00
740;BME280;354;42.694;23.336;2022-08-19T09:56:34;95042.69;;;31.44;39.39
740;BME280;354;42.694;23.336;2022-08-19T09:59:02;95031.47;;;31.45;39.99
740;BME280;354;42.694;23.336;2022-08-19T10:01:31;95036.22;;;31.48;40.24
740;BME280;354;42.694;23.336;2022-08-19T10:03:58;95025.06;;;31.54;42.96
740;BME280;354;42.694;23.336;2022-08-19T10:06:26;95024.38;;;31.72;42.55
740;BME280;354;42.694;23.336;2022-08-19T10:08:55;95014.56;;;31.99;44.10
740;BME280;354;42.694;23.336;2022-08-19T10:11:21;95021.22;;;32.02;41.41
740;BME280;354;42.694;23.336;2022-08-19T10:13:47;95016.25;;;32.04;40.76
740;BME280;354;42.694;23.336;2022-08-19T10:16:15;95008.50;;;32.06;41.00
740;BME280;354;42.694;23.336;2022-08-19T10:18:41;95014.88;;;32.14;41.21
740;BME280;354;42.694;23.336;2022-08-19T10:21:17;95010.78;;;32.04;39.88
740;BME280;354;42.694;23.336;2022-08-19T10:23:45;95009.19;;;32.03;40.13
740;BME280;354;42.694;23.336;2022-08-19T10:26:17;95009.00;;;32.12;41.92
740;BME280;354;42.694;23.336;2022-08-19T10:28:44;95008.66;;;32.13;40.53
740;BME280;354;42.694;23.336;2022-08-19T10:31:18;95008.09;;;32.23;41.69
740;BME280;354;42.694;23.336;2022-08-19T10:33:45;95005.47;;;32.27;39.48
740;BME280;354;42.694;23.336;2022-08-19T10:36:24;95000.81;;;32.28;38.84
740;BME280;354;42.694;23.336;2022-08-19T10:38:54;95003.94;;;32.10;39.03
740;BME280;354;42.694;23.336;2022-08-19T10:41:24;95000.75;;;32.08;40.10
740;BME280;354;42.694;23.336;2022-08-19T10:43:54;94991.63;;;32.16;39.38
740;BME280;354;42.694;23.336;2022-08-19T10:46:21;94989.28;;;32.15;39.02
740;BME280;354;42.694;23.336;2022-08-19T10:48:48;94999.66;;;32.29;39.70
740;BME280;354;42.694;23.336;2022-08-19T10:51:14;94993.16;;;32.33;40.75
740;BME280;354;42.694;23.336;2022-08-19T10:53:59;94993.78;;;32.42;41.13
740;BME280;354;42.694;23.336;2022-08-19T10:56:26;94985.03;;;32.52;40.93
740;BME280;354;42.694;23.336;2022-08-19T10:59:11;94981.25;;;32.57;40.71
740;BME280;354;42.694;23.336;2022-08-19T11:01:39;94988.44;;;32.65;41.21
740;BME280;354;42.694;23.336;2022-08-19T11:04:05;94988.06;;;32.67;39.59
740;BME280;354;42.694;23.336;2022-08-19T11:06:34;94981.75;;;32.63;39.53
740;BME280;354;42.694;23.336;2022-08-19T11:08:59;94983.47;;;32.71;38.85
740;BME280;354;42.694;23.336;2022-08-19T11:11:25;94953.50;;;32.51;37.85
740;BME280;354;42.694;23.336;2022-08-19T11:13:51;94973.16;;;32.61;38.90
740;BME280;354;42.694;23.336;2022-08-19T11:16:23;94974.94;;;32.72;38.65
740;BME280;354;42.694;23.336;2022-08-19T11:18:52;94973.06;;;32.57;37.43
740;BME280;354;42.694;23.336;2022-08-19T11:21:19;94975.53;;;32.62;38.17
740;BME280;354;42.694;23.336;2022-08-19T11:23:50;94951.38;;;32.61;38.32
740;BME280;354;42.694;23.336;2022-08-19T11:26:18;94971.72;;;32.86;38.44
740;BME280;354;42.694;23.336;2022-08-19T11:28:44;94963.34;;;32.95;39.94
740;BME280;354;42.694;23.336;2022-08-19T11:31:11;94964.13;;;32.95;38.46
740;BME280;354;42.694;23.336;2022-08-19T11:33:37;94963.41;;;32.98;38.29
740;BME280;354;42.694;23.336;2022-08-19T11:36:03;94957.84;;;32.91;37.79
740;BME280;354;42.694;23.336;2022-08-19T11:38:28;94946.63;;;32.96;37.04
740;BME280;354;42.694;23.336;2022-08-19T11:40:59;94955.28;;;33.02;37.97
740;BME280;354;42.694;23.336;2022-08-19T11:43:25;94944.84;;;33.04;37.91
740;BME280;354;42.694;23.336;2022-08-19T11:45:53;94941.66;;;33.02;38.07
740;BME280;354;42.694;23.336;2022-08-19T11:48:18;94943.63;;;33.01;38.17
740;BME280;354;42.694;23.336;2022-08-19T11:50:48;94943.50;;;32.94;38.32
740;BME280;354;42.694;23.336;2022-08-19T11:53:13;94943.63;;;33.01;38.95
740;BME280;354;42.694;23.336;2022-08-19T11:55:39;94945.63;;;33.04;40.59
740;BME280;354;42.694;23.336;2022-08-19T11:58:05;94946.50;;;33.09;39.51
740;BME280;354;42.694;23.336;2022-08-19T12:00:32;94938.16;;;33.01;38.69
740;BME280;354;42.694;23.336;2022-08-19T12:02:59;94934.06;;;33.11;38.71
740;BME280;354;42.694;23.336;2022-08-19T12:05:24;94934.84;;;33.12;38.75
740;BME280;354;42.694;23.336;2022-08-19T12:07:49;94925.16;;;33.14;39.22
740;BME280;354;42.694;23.336;2022-08-19T12:10:15;94909.50;;;33.08;38.86
740;BME280;354;42.694;23.336;2022-08-19T12:12:40;94917.03;;;33.18;37.87
740;BME280;354;42.694;23.336;2022-08-19T12:15:09;94916.25;;;33.17;37.82
740;BME280;354;42.694;23.336;2022-08-19T12:17:36;94895.91;;;32.88;37.00
740;BME280;354;42.694;23.336;2022-08-19T12:20:02;94916.06;;;33.07;38.65
740;BME280;354;42.694;23.336;2022-08-19T12:22:28;94907.09;;;33.06;38.91
740;BME280;354;42.694;23.336;2022-08-19T12:24:54;94906.69;;;33.04;39.31
740;BME280;354;42.694;23.336;2022-08-19T12:27:20;94902.41;;;33.03;38.32
740;BME280;354;42.694;23.336;2022-08-19T12:29:46;94899.97;;;32.98;37.54
740;BME280;354;42.694;23.336;2022-08-19T12:32:11;94901.13;;;32.97;36.97
740;BME280;354;42.694;23.336;2022-08-19T12:34:37;94897.47;;;32.89;39.31
740;BME280;354;42.694;23.336;2022-08-19T12:37:04;94892.34;;;32.88;38.28
740;BME280;354;42.694;23.336;2022-08-19T12:39:34;94893.59;;;32.90;39.03
740;BME280;354;42.694;23.336;2022-08-19T12:41:59;94884.78;;;32.97;38.38
740;BME280;354;42.694;23.336;2022-08-19T12:44:25;94887.53;;;33.00;38.80
740;BME280;354;42.694;23.336;2022-08-19T12:46:50;94868.66;;;32.88;36.70
740;BME280;354;42.694;23.336;2022-08-19T12:49:16;94885.19;;;32.99;38.07
740;BME280;354;42.694;23.336;2022-08-19T12:51:41;94879.31;;;32.97;37.16
740;BME280;354;42.694;23.336;2022-08-19T12:54:07;94884.41;;;32.98;38.30
740;BME280;354;42.694;23.336;2022-08-19T12:56:33;94878.97;;;32.98;37.95
740;BME280;354;42.694;23.336;2022-08-19T12:59:01;94860.91;;;32.90;37.77
740;BME280;354;42.694;23.336;2022-08-19T13:01:27;94877.09;;;33.02;37.60
740;BME280;354;42.694;23.336;2022-08-19T13:03:55;94876.34;;;33.06;37.71
740;BME280;354;42.694;23.336;2022-08-19T13:06:21;94867.31;;;33.01;37.73
740;BME280;354;42.694;23.336;2022-08-19T13:08:46;94871.94;;;32.97;37.20
740;BME280;354;42.694;23.336;2022-08-19T13:11:14;94870.03;;;33.01;38.95
740;BME280;354;42.694;23.336;2022-08-19T13:13:42;94865.63;;;32.93;37.31
740;BME280;354;42.694;23.336;2022-08-19T13:16:09;94865.03;;;33.03;38.59
740;BME280;354;42.694;23.336;2022-08-19T13:18:36;94860.28;;;33.00;36.75
740;BME280;354;42.694;23.336;2022-08-19T13:21:06;94856.19;;;33.10;37.93
740;BME280;354;42.694;23.336;2022-08-19T13:23:34;94864.66;;;33.05;37.31
740;BME280;354;42.694;23.336;2022-08-19T13:26:03;94857.19;;;33.02;36.50
740;BME280;354;42.694;23.336;2022-08-19T13:28:29;94857.28;;;33.06;36.94
740;BME280;354;42.694;23.336;2022-08-19T13:31:19;94856.13;;;33.07;36.63
740;BME280;354;42.694;23.336;2022-08-19T13:34:04;94847.03;;;32.99;37.37
740;BME280;354;42.694;23.336;2022-08-19T13:36:34;94844.69;;;32.97;38.84
740;BME280;354;42.694;23.336;2022-08-19T13:39:00;94840.06;;;33.01;37.97